createdAt,value
2022-12-03T00:01:28.824Z,15.15
2022-12-03T00:04:33.584Z,14.37
2022-12-03T00:07:38.361Z,14.65
2022-12-03T00:10:44.704Z,14.75
2022-12-03T00:13:48.372Z,14.85
2022-12-03T00:16:52.000Z,14.93
2022-12-03T00:19:55.309Z,15.13
2022-12-03T00:22:58.248Z,15.45
2022-12-03T00:26:00.674Z,15.02
2022-12-03T00:29:03.896Z,13.48
2022-12-03T00:32:07.496Z,14.52
2022-12-03T00:35:11.084Z,14.97
2022-12-03T00:38:14.770Z,14.15
2022-12-03T00:41:17.507Z,14.70
2022-12-03T00:44:20.312Z,14.10
2022-12-03T00:47:23.341Z,15.18
2022-12-03T00:50:26.013Z,14.53
2022-12-03T00:53:28.872Z,14.68
2022-12-03T00:56:31.318Z,14.52
2022-12-03T00:59:34.563Z,16.05
2022-12-03T01:02:37.184Z,15.60
2022-12-03T01:05:40.448Z,14.33
2022-12-03T01:08:44.625Z,14.98
2022-12-03T01:11:47.462Z,14.55
2022-12-03T01:14:50.776Z,15.02
2022-12-03T01:17:54.407Z,15.13
2022-12-03T01:20:57.143Z,15.67
2022-12-03T01:24:00.586Z,14.60
2022-12-03T01:27:03.104Z,15.57
2022-12-03T01:30:07.731Z,16.37
2022-12-03T01:33:10.493Z,14.60
2022-12-03T01:36:13.806Z,15.03
2022-12-03T01:39:16.664Z,13.90
2022-12-03T01:42:45.878Z,14.60
2022-12-03T01:45:48.338Z,15.13
2022-12-03T01:48:56.080Z,14.73
2022-12-03T01:51:59.286Z,15.43
2022-12-03T01:55:06.068Z,14.77
2022-12-03T01:58:12.875Z,15.20
2022-12-03T02:01:18.414Z,14.60
2022-12-03T02:04:23.646Z,15.25
2022-12-03T02:07:32.614Z,14.70
2022-12-03T02:10:37.916Z,14.93
2022-12-03T02:13:41.346Z,14.48
2022-12-03T02:16:45.946Z,14.98
2022-12-03T02:19:49.648Z,15.18
2022-12-03T02:22:55.274Z,15.03
2022-12-03T02:25:58.436Z,14.30
2022-12-03T02:29:02.580Z,15.45
2022-12-03T02:32:05.811Z,15.48
2022-12-03T02:35:17.080Z,16.20
2022-12-03T02:38:26.119Z,14.77
2022-12-03T02:41:49.085Z,15.68
2022-12-03T02:44:53.102Z,14.20
2022-12-03T02:48:00.472Z,14.35
2022-12-03T02:51:07.936Z,15.57
2022-12-03T02:54:11.977Z,14.90
2022-12-03T02:57:16.778Z,14.50
2022-12-03T03:00:20.214Z,14.98
2022-12-03T03:03:26.926Z,15.35
2022-12-03T03:06:29.637Z,13.68
2022-12-03T03:09:33.905Z,14.23
2022-12-03T03:12:39.450Z,14.95
2022-12-03T03:15:44.558Z,14.90
2022-12-03T03:18:48.945Z,13.73
2022-12-03T03:21:53.629Z,14.87
2022-12-03T03:24:56.528Z,16.27
2022-12-03T03:27:59.579Z,16.87
2022-12-03T03:31:05.058Z,15.98
2022-12-03T03:34:09.611Z,15.40
2022-12-03T03:37:12.780Z,15.33
2022-12-03T03:40:16.033Z,17.17
2022-12-03T03:43:21.721Z,16.08
2022-12-03T03:46:25.319Z,16.48
2022-12-03T03:49:29.763Z,17.23
2022-12-03T03:52:33.039Z,15.50
2022-12-03T03:55:39.415Z,17.00
2022-12-03T03:58:42.967Z,17.58
2022-12-03T04:01:46.395Z,15.60
2022-12-03T04:04:50.319Z,17.23
2022-12-03T04:07:54.243Z,14.80
2022-12-03T04:11:16.028Z,16.17
2022-12-03T04:14:18.434Z,15.40
2022-12-03T04:17:22.570Z,14.27
2022-12-03T04:20:25.512Z,17.52
2022-12-03T04:23:31.005Z,15.33
2022-12-03T04:26:52.905Z,14.98
2022-12-03T04:29:56.210Z,16.90
2022-12-03T04:33:18.283Z,15.77
2022-12-03T04:36:25.925Z,15.63
2022-12-03T04:39:29.130Z,12.35
2022-12-03T04:42:33.560Z,14.68
2022-12-03T04:45:36.438Z,14.52
2022-12-03T04:48:40.867Z,16.87
2022-12-03T04:51:44.249Z,15.50
2022-12-03T04:54:47.410Z,17.90
2022-12-03T04:57:50.765Z,16.50
2022-12-03T05:00:53.762Z,14.32
2022-12-03T05:03:56.345Z,15.07
2022-12-03T05:07:00.837Z,16.77
2022-12-03T05:10:08.587Z,15.55
2022-12-03T05:13:13.837Z,16.65
2022-12-03T05:16:18.142Z,15.50
2022-12-03T05:19:42.069Z,15.60
2022-12-03T05:22:45.657Z,16.80
2022-12-03T05:25:48.701Z,15.60
2022-12-03T05:28:51.346Z,14.75
2022-12-03T05:31:56.775Z,16.25
2022-12-03T05:34:59.968Z,16.03
2022-12-03T05:38:03.135Z,17.23
2022-12-03T05:41:26.062Z,17.20
2022-12-03T05:44:29.409Z,15.25
2022-12-03T05:47:32.054Z,18.33
2022-12-03T05:50:38.038Z,15.87
2022-12-03T05:53:49.762Z,15.82
2022-12-03T05:56:52.738Z,17.80
2022-12-03T05:59:55.981Z,17.40
2022-12-03T06:03:00.843Z,15.60
2022-12-03T06:06:05.273Z,17.08
2022-12-03T06:09:09.713Z,16.52
2022-12-03T06:12:13.237Z,18.05
2022-12-03T06:15:26.625Z,17.75
2022-12-03T06:18:33.071Z,17.60
2022-12-03T06:21:36.613Z,17.48
2022-12-03T06:24:41.066Z,18.45
2022-12-03T06:27:44.873Z,17.27
2022-12-03T06:30:48.701Z,17.83
2022-12-03T06:33:53.573Z,18.13
2022-12-03T06:36:57.962Z,18.85
2022-12-03T06:40:06.553Z,19.48
2022-12-03T06:43:11.994Z,17.17
2022-12-03T06:46:26.705Z,23.52
2022-12-03T06:49:30.459Z,21.43
2022-12-03T06:52:35.729Z,21.52
2022-12-03T06:55:41.094Z,21.83
2022-12-03T06:58:48.955Z,21.73
2022-12-03T07:01:53.588Z,19.70
2022-12-03T07:04:57.425Z,18.07
2022-12-03T07:08:03.686Z,19.73
2022-12-03T07:11:31.737Z,19.52
2022-12-03T07:14:41.285Z,19.15
2022-12-03T07:17:52.050Z,18.85
2022-12-03T07:20:55.843Z,17.97
2022-12-03T07:24:00.056Z,20.10
2022-12-03T07:27:06.108Z,20.23
2022-12-03T07:30:15.550Z,18.90
2022-12-03T07:33:32.523Z,21.10
2022-12-03T07:36:45.847Z,18.47
2022-12-03T07:39:58.527Z,20.42
2022-12-03T07:43:09.542Z,19.98
2022-12-03T07:46:13.879Z,20.77
2022-12-03T07:49:20.333Z,19.73
2022-12-03T07:52:26.096Z,19.50
2022-12-03T07:55:48.411Z,18.45
2022-12-03T07:58:57.991Z,20.75
2022-12-03T08:02:16.813Z,17.67
2022-12-03T08:05:26.923Z,19.15
2022-12-03T08:08:38.029Z,17.93
2022-12-03T08:11:45.267Z,18.55
2022-12-03T08:14:57.759Z,16.20
2022-12-03T08:18:27.894Z,18.87
2022-12-03T08:21:36.572Z,18.10
2022-12-03T08:24:39.999Z,16.87
2022-12-03T08:27:44.675Z,20.45
2022-12-03T08:31:14.592Z,20.23
2022-12-03T08:34:22.633Z,20.98
2022-12-03T08:37:30.335Z,16.58
2022-12-03T08:40:37.593Z,20.63
2022-12-03T08:43:50.404Z,19.45
2022-12-03T08:47:03.471Z,21.08
2022-12-03T08:50:41.597Z,19.15
2022-12-03T08:53:48.885Z,18.35
2022-12-03T08:57:01.898Z,20.27
2022-12-03T09:00:21.546Z,21.33
2022-12-03T09:03:34.013Z,19.37
2022-12-03T09:06:51.762Z,18.40
2022-12-03T09:10:05.731Z,18.70
2022-12-03T09:13:19.710Z,19.67
2022-12-03T09:16:23.928Z,18.60
2022-12-03T09:19:34.774Z,19.15
2022-12-03T09:22:38.898Z,20.90
2022-12-03T09:25:52.215Z,18.08
2022-12-03T09:28:55.824Z,19.17
2022-12-03T09:32:15.116Z,18.75
2022-12-03T09:35:26.530Z,18.17
2022-12-03T09:38:32.597Z,17.35
2022-12-03T09:41:51.985Z,20.90
2022-12-03T09:44:57.177Z,19.10
2022-12-03T09:48:03.906Z,19.10
2022-12-03T09:51:09.605Z,21.62
2022-12-03T09:54:24.801Z,21.80
2022-12-03T09:57:38.385Z,20.63
2022-12-03T10:00:47.523Z,20.87
2022-12-03T10:03:51.760Z,22.10
2022-12-03T10:06:57.720Z,20.83
2022-12-03T10:10:08.646Z,20.37
2022-12-03T10:13:37.297Z,20.45
2022-12-03T10:16:41.575Z,18.52
2022-12-03T10:20:18.812Z,20.05
2022-12-03T10:23:28.645Z,18.90
2022-12-03T10:26:41.826Z,20.08
2022-12-03T10:29:58.640Z,20.50
2022-12-03T10:33:18.876Z,20.62
2022-12-03T10:36:34.845Z,20.40
2022-12-03T10:40:00.289Z,19.10
2022-12-03T10:43:20.172Z,20.60
2022-12-03T10:46:33.079Z,20.62
2022-12-03T10:49:41.811Z,22.83
2022-12-03T10:52:49.563Z,22.70
2022-12-03T10:56:09.472Z,19.67
2022-12-03T10:59:19.584Z,17.62
2022-12-03T11:02:29.677Z,18.00
2022-12-03T11:05:33.874Z,15.55
2022-12-03T11:08:41.529Z,18.90
2022-12-03T11:11:48.541Z,16.33
2022-12-03T11:14:57.969Z,16.37
2022-12-03T11:18:02.890Z,17.40
2022-12-03T11:21:09.826Z,17.75
2022-12-03T11:24:21.015Z,17.40
2022-12-03T11:27:32.563Z,16.53
2022-12-03T11:30:51.345Z,17.48
2022-12-03T11:34:21.559Z,15.75
2022-12-03T11:37:31.592Z,15.43
2022-12-03T11:40:39.377Z,16.15
2022-12-03T11:44:00.450Z,16.13
2022-12-03T11:47:17.729Z,15.10
2022-12-03T11:50:57.727Z,15.23
2022-12-03T11:54:09.498Z,12.63
2022-12-03T11:57:28.319Z,16.17
2022-12-03T12:00:35.810Z,14.37
2022-12-03T12:03:49.047Z,14.35
2022-12-03T12:07:01.681Z,15.48
2022-12-03T12:10:42.445Z,13.50
2022-12-03T12:13:55.554Z,14.00
2022-12-03T12:17:03.322Z,12.57
2022-12-03T12:20:23.728Z,14.30
2022-12-03T12:23:29.617Z,14.13
2022-12-03T12:26:50.660Z,13.73
2022-12-03T12:30:13.674Z,14.10
2022-12-03T12:33:29.372Z,13.77
2022-12-03T12:36:51.423Z,12.60
2022-12-03T12:40:03.819Z,13.98
2022-12-03T12:43:15.530Z,14.18
2022-12-03T12:46:47.376Z,13.40
2022-12-03T12:49:58.595Z,14.20
2022-12-03T12:53:12.788Z,13.38
2022-12-03T12:56:25.834Z,13.90
2022-12-03T12:59:36.601Z,13.25
2022-12-03T13:02:50.752Z,14.02
2022-12-03T13:06:05.400Z,12.40
2022-12-03T13:09:31.276Z,14.38
2022-12-03T13:12:44.708Z,15.65
2022-12-03T13:16:05.394Z,12.48
2022-12-03T13:19:22.425Z,13.52
2022-12-03T13:22:26.100Z,12.80
2022-12-03T13:25:59.297Z,18.20
2022-12-03T13:29:07.406Z,17.33
2022-12-03T13:32:29.395Z,13.38
2022-12-03T13:35:41.525Z,14.98
2022-12-03T13:38:50.448Z,10.87
2022-12-03T13:42:14.630Z,15.00
2022-12-03T13:45:37.222Z,11.90
2022-12-03T13:48:43.364Z,14.00
2022-12-03T13:51:47.444Z,13.90
2022-12-03T13:54:59.746Z,14.53
2022-12-03T13:58:10.881Z,15.00
2022-12-03T14:01:24.024Z,12.93
2022-12-03T14:04:31.990Z,13.27
2022-12-03T14:07:47.843Z,13.38
2022-12-03T14:10:55.569Z,13.03
2022-12-03T14:14:02.161Z,11.18
2022-12-03T14:17:07.853Z,12.30
2022-12-03T14:20:16.505Z,14.20
2022-12-03T14:23:20.874Z,14.63
2022-12-03T14:26:30.479Z,13.83
2022-12-03T14:29:34.991Z,14.80
2022-12-03T14:32:39.699Z,14.25
2022-12-03T14:35:45.033Z,13.48
2022-12-03T14:39:02.635Z,14.57
2022-12-03T14:42:15.453Z,14.20
2022-12-03T14:45:28.585Z,13.57
2022-12-03T14:48:42.002Z,14.55
2022-12-03T14:51:47.315Z,14.60
2022-12-03T14:54:57.633Z,15.80
2022-12-03T14:58:04.582Z,15.50
2022-12-03T15:01:13.723Z,15.25
2022-12-03T15:04:23.403Z,15.93
2022-12-03T15:07:34.776Z,16.25
2022-12-03T15:10:43.675Z,15.88
2022-12-03T15:13:48.461Z,16.17
2022-12-03T15:16:55.219Z,18.02
2022-12-03T15:20:12.644Z,20.17
2022-12-03T15:23:22.486Z,18.65
2022-12-03T15:26:33.496Z,18.25
2022-12-03T15:29:37.688Z,19.37
2022-12-03T15:32:56.356Z,17.37
2022-12-03T15:36:06.202Z,17.73
2022-12-03T15:39:10.754Z,18.20
2022-12-03T15:42:23.403Z,18.87
2022-12-03T15:45:27.540Z,19.00
2022-12-03T15:48:30.638Z,17.95
2022-12-03T15:51:34.392Z,18.27
2022-12-03T15:54:42.477Z,16.67
2022-12-03T15:57:49.349Z,19.33
2022-12-03T16:00:52.904Z,17.20
2022-12-03T16:03:58.086Z,18.67
2022-12-03T16:07:10.736Z,19.48
2022-12-03T16:10:26.039Z,19.85
2022-12-03T16:13:36.624Z,20.90
2022-12-03T16:16:48.751Z,21.67
2022-12-03T16:19:56.832Z,23.40
2022-12-03T16:23:00.180Z,28.15
2022-12-03T16:26:04.554Z,26.60
2022-12-03T16:29:15.243Z,27.42
2022-12-03T16:32:32.417Z,24.13
2022-12-03T16:35:38.108Z,19.85
2022-12-03T16:38:43.676Z,19.87
2022-12-03T16:41:54.448Z,17.80
2022-12-03T16:45:12.463Z,18.95
2022-12-03T16:48:23.608Z,17.83
2022-12-03T16:51:30.398Z,17.35
2022-12-03T16:54:43.553Z,18.25
2022-12-03T16:57:46.461Z,18.92
2022-12-03T17:00:58.166Z,18.40
2022-12-03T17:04:15.635Z,18.37
2022-12-03T17:07:22.655Z,20.00
2022-12-03T17:10:28.736Z,19.83
2022-12-03T17:13:35.204Z,19.67
2022-12-03T17:16:52.579Z,20.50
2022-12-03T17:19:58.582Z,19.43
2022-12-03T17:23:04.524Z,20.30
2022-12-03T17:26:15.359Z,21.42
2022-12-03T17:29:37.535Z,20.83
2022-12-03T17:32:50.498Z,22.50
2022-12-03T17:35:58.620Z,22.07
2022-12-03T17:39:05.674Z,21.52
2022-12-03T17:42:12.671Z,24.63
2022-12-03T17:45:17.752Z,24.12
2022-12-03T17:48:21.463Z,24.27
2022-12-03T17:51:31.521Z,23.20
2022-12-03T17:55:08.390Z,25.30
2022-12-03T17:58:06.045Z,25.83
2022-12-03T18:01:22.474Z,24.05
2022-12-03T18:04:33.574Z,23.55
2022-12-03T18:07:43.671Z,24.83
2022-12-03T18:10:53.528Z,24.60
2022-12-03T18:14:11.439Z,23.33
2022-12-03T18:17:24.448Z,24.52
2022-12-03T18:20:35.118Z,25.50
2022-12-03T18:23:51.387Z,24.37
2022-12-03T18:27:01.855Z,25.25
2022-12-03T18:30:08.804Z,25.37
2022-12-03T18:33:16.367Z,23.80
2022-12-03T18:36:25.477Z,24.10
2022-12-03T18:39:42.430Z,25.37
2022-12-03T18:42:49.636Z,26.17
2022-12-03T18:46:04.591Z,27.75
2022-12-03T18:49:16.025Z,25.23
2022-12-03T18:52:22.599Z,23.87
2022-12-03T18:55:37.409Z,23.93
2022-12-03T18:58:44.649Z,22.52
2022-12-03T19:01:49.619Z,27.35
2022-12-03T19:04:56.489Z,27.70
2022-12-03T19:08:18.594Z,25.98
2022-12-03T19:11:30.719Z,23.77
2022-12-03T19:14:57.313Z,23.85
2022-12-03T19:18:01.412Z,24.50
2022-12-03T19:21:09.334Z,24.10
2022-12-03T19:24:24.291Z,25.10
2022-12-03T19:27:38.414Z,23.87
2022-12-03T19:30:46.532Z,24.60
2022-12-03T19:33:59.627Z,25.35
2022-12-03T19:37:14.290Z,27.00
2022-12-03T19:40:25.445Z,26.73
2022-12-03T19:43:39.311Z,23.77
2022-12-03T19:46:54.454Z,24.35
2022-12-03T19:49:59.141Z,25.05
2022-12-03T19:53:17.568Z,25.60
2022-12-03T19:56:20.982Z,26.00
2022-12-03T19:59:39.451Z,27.70
2022-12-03T20:02:50.460Z,29.80
2022-12-03T20:06:11.418Z,30.77
2022-12-03T20:09:18.106Z,33.08
2022-12-03T20:12:25.393Z,34.88
2022-12-03T20:15:32.469Z,29.70
2022-12-03T20:18:37.597Z,29.50
2022-12-03T20:22:02.540Z,30.17
2022-12-03T20:25:21.452Z,30.08
2022-12-03T20:28:30.426Z,32.15
2022-12-03T20:31:42.508Z,33.17
2022-12-03T20:34:57.417Z,37.22
2022-12-03T20:38:01.557Z,42.33
2022-12-03T20:41:17.305Z,41.33
2022-12-03T20:44:24.502Z,37.42
2022-12-03T20:47:37.547Z,31.50
2022-12-03T20:50:42.232Z,31.90
2022-12-03T20:53:53.408Z,32.63
2022-12-03T20:57:11.318Z,30.40
2022-12-03T21:00:16.371Z,33.63
2022-12-03T21:03:30.300Z,30.90
2022-12-03T21:06:42.320Z,29.27
2022-12-03T21:09:51.653Z,30.52
2022-12-03T21:12:56.449Z,30.67
2022-12-03T21:16:07.838Z,31.45
2022-12-03T21:19:20.492Z,45.23
2022-12-03T21:22:24.349Z,32.55
2022-12-03T21:25:31.934Z,29.63
2022-12-03T21:28:46.444Z,28.00
2022-12-03T21:31:57.327Z,27.15
2022-12-03T21:35:00.674Z,26.17
2022-12-03T21:38:08.623Z,25.88
2022-12-03T21:41:15.787Z,25.30
2022-12-03T21:44:27.521Z,23.87
2022-12-03T21:47:37.458Z,25.10
2022-12-03T21:50:41.602Z,24.83
2022-12-03T21:53:46.921Z,24.65
2022-12-03T21:56:54.299Z,21.08
2022-12-03T21:59:57.987Z,18.52
2022-12-03T22:03:02.909Z,24.98
2022-12-03T22:06:09.446Z,24.50
2022-12-03T22:09:24.831Z,23.15
2022-12-03T22:12:32.829Z,23.35
2022-12-03T22:15:38.881Z,24.85
2022-12-03T22:18:43.733Z,25.73
2022-12-03T22:21:47.711Z,24.43
2022-12-03T22:24:55.387Z,24.83
2022-12-03T22:28:00.770Z,24.80
2022-12-03T22:31:09.837Z,24.92
2022-12-03T22:34:13.156Z,24.75
2022-12-03T22:37:17.836Z,23.73
2022-12-03T22:40:21.722Z,24.10
2022-12-03T22:43:25.557Z,24.67
2022-12-03T22:46:29.604Z,23.80
2022-12-03T22:49:33.123Z,24.23
2022-12-03T22:52:37.872Z,24.97
2022-12-03T22:55:42.705Z,24.12
2022-12-03T22:58:47.078Z,24.37
2022-12-03T23:01:51.825Z,23.80
2022-12-03T23:04:57.499Z,24.92
2022-12-03T23:08:00.711Z,23.00
2022-12-03T23:11:05.890Z,24.42
2022-12-03T23:14:08.980Z,24.80
2022-12-03T23:17:11.622Z,22.87
2022-12-03T23:20:15.049Z,24.65
2022-12-03T23:23:26.192Z,25.03
2022-12-03T23:26:29.912Z,23.52
2022-12-03T23:29:36.258Z,25.12
2022-12-03T23:32:42.598Z,24.75
2022-12-03T23:35:55.563Z,24.23
2022-12-03T23:39:00.801Z,24.93
2022-12-03T23:42:04.477Z,24.10
2022-12-03T23:45:08.021Z,23.52
2022-12-03T23:48:11.439Z,23.48
2022-12-03T23:51:17.493Z,23.77
2022-12-03T23:54:20.010Z,23.93
2022-12-03T23:57:23.023Z,24.30
